createdAt,value
2018-06-09T00:00:08.297Z,2.70
2018-06-09T00:01:08.317Z,2.50
2018-06-09T00:02:08.330Z,2.60
2018-06-09T00:03:08.342Z,2.70
2018-06-09T00:04:08.367Z,2.70
2018-06-09T00:05:08.381Z,2.50
2018-06-09T00:06:08.409Z,2.30
2018-06-09T00:08:08.432Z,2.40
2018-06-09T00:09:08.447Z,2.40
2018-06-09T00:10:08.461Z,2.40
2018-06-09T00:11:08.494Z,2.30
2018-06-09T00:12:08.493Z,2.40
2018-06-09T00:13:08.509Z,2.40
2018-06-09T00:14:08.581Z,2.40
2018-06-09T00:15:08.545Z,2.70
2018-06-09T00:16:08.562Z,2.40
2018-06-09T00:17:08.576Z,2.70
2018-06-09T00:18:08.590Z,2.60
2018-06-09T00:19:08.603Z,2.50
2018-06-09T00:20:08.624Z,2.60
2018-06-09T00:21:08.645Z,2.20
2018-06-09T00:22:08.657Z,2.70
2018-06-09T00:23:08.673Z,2.40
2018-06-09T00:24:08.711Z,2.80
2018-06-09T00:25:08.714Z,3.10
2018-06-09T00:26:08.776Z,2.80
2018-06-09T00:27:08.737Z,2.40
2018-06-09T00:28:08.756Z,2.90
2018-06-09T00:29:08.774Z,2.80
2018-06-09T00:30:08.782Z,2.70
2018-06-09T00:31:08.801Z,3.10
2018-06-09T00:32:08.815Z,2.50
2018-06-09T00:33:08.840Z,2.80
2018-06-09T00:34:08.862Z,3.00
2018-06-09T00:35:08.864Z,2.70
2018-06-09T00:36:08.882Z,2.70
2018-06-09T00:37:08.900Z,2.80
2018-06-09T00:38:08.919Z,2.90
2018-06-09T00:39:08.935Z,2.80
2018-06-09T00:40:08.952Z,2.90
2018-06-09T00:41:08.962Z,3.20
2018-06-09T00:42:08.979Z,2.90
2018-06-09T00:43:09.054Z,2.40
2018-06-09T00:44:09.017Z,2.90
2018-06-09T00:45:09.028Z,2.80
2018-06-09T00:46:09.049Z,2.80
2018-06-09T00:47:09.064Z,3.20
2018-06-09T00:48:09.076Z,2.60
2018-06-09T00:49:09.149Z,3.10
2018-06-09T00:50:09.109Z,2.70
2018-06-09T00:51:09.129Z,3.00
2018-06-09T00:52:09.146Z,2.90
2018-06-09T00:53:09.156Z,2.90
2018-06-09T00:54:09.174Z,3.00
2018-06-09T00:55:09.246Z,2.70
2018-06-09T00:56:09.209Z,3.10
2018-06-09T00:57:09.228Z,3.00
2018-06-09T00:58:09.237Z,3.30
2018-06-09T00:59:09.253Z,2.80
2018-06-09T01:00:09.271Z,3.00
2018-06-09T01:01:09.339Z,2.60
2018-06-09T01:02:09.309Z,2.80
2018-06-09T01:03:09.319Z,2.60
2018-06-09T01:04:09.340Z,2.80
2018-06-09T01:05:09.355Z,2.90
2018-06-09T01:06:09.376Z,2.50
2018-06-09T01:07:09.440Z,2.80
2018-06-09T01:08:09.401Z,2.70
2018-06-09T01:09:09.415Z,2.90
2018-06-09T01:10:09.435Z,2.80
2018-06-09T01:11:09.460Z,3.10
2018-06-09T01:12:09.470Z,2.70
2018-06-09T01:13:09.488Z,3.10
2018-06-09T01:14:09.503Z,3.00
2018-06-09T01:15:09.515Z,2.70
2018-06-09T01:16:09.534Z,3.20
2018-06-09T01:17:09.624Z,3.30
2018-06-09T01:18:09.561Z,2.90
2018-06-09T01:19:09.629Z,3.20
2018-06-09T01:20:09.597Z,3.00
2018-06-09T01:21:09.617Z,3.60
2018-06-09T01:22:09.628Z,3.60
2018-06-09T01:23:09.684Z,3.50
2018-06-09T01:24:09.660Z,3.60
2018-06-09T01:25:09.679Z,3.40
2018-06-09T01:26:09.691Z,3.40
2018-06-09T01:27:09.711Z,4.00
2018-06-09T01:28:09.723Z,3.50
2018-06-09T01:29:09.790Z,3.70
2018-06-09T01:30:09.754Z,3.50
2018-06-09T01:31:09.824Z,4.00
2018-06-09T01:32:09.788Z,4.20
2018-06-09T01:33:09.807Z,3.70
2018-06-09T01:34:09.897Z,3.90
2018-06-09T01:35:09.913Z,3.90
2018-06-09T01:36:09.849Z,3.60
2018-06-09T01:37:09.865Z,3.60
2018-06-09T01:38:09.885Z,3.60
2018-06-09T01:39:09.896Z,3.80
2018-06-09T01:40:09.917Z,3.20
2018-06-09T01:41:10.022Z,3.40
2018-06-09T01:42:09.949Z,3.90
2018-06-09T01:43:10.014Z,3.20
2018-06-09T01:44:09.980Z,3.60
2018-06-09T01:45:09.998Z,3.40
2018-06-09T01:46:10.013Z,3.50
2018-06-09T01:47:10.024Z,3.60
2018-06-09T01:48:10.044Z,3.60
2018-06-09T01:49:10.068Z,3.60
2018-06-09T01:50:10.077Z,3.90
2018-06-09T01:51:10.093Z,3.40
2018-06-09T01:52:10.111Z,3.20
2018-06-09T01:53:10.172Z,3.20
2018-06-09T01:54:10.139Z,3.40
2018-06-09T01:55:10.206Z,3.10
2018-06-09T01:56:10.172Z,3.60
2018-06-09T01:57:10.188Z,3.40
2018-06-09T01:58:10.203Z,3.40
2018-06-09T01:59:10.256Z,3.20
2018-06-09T02:00:10.238Z,3.30
2018-06-09T02:01:10.257Z,3.20
2018-06-09T02:02:10.270Z,3.20
2018-06-09T02:03:10.288Z,3.30
2018-06-09T02:04:10.297Z,3.20
2018-06-09T02:05:10.346Z,3.40
2018-06-09T02:06:10.336Z,3.10
2018-06-09T02:07:10.350Z,2.80
2018-06-09T02:08:10.368Z,3.10
2018-06-09T02:09:10.417Z,3.40
2018-06-09T02:10:10.395Z,3.00
2018-06-09T02:11:10.486Z,3.20
2018-06-09T02:12:10.429Z,3.00
2018-06-09T02:13:10.500Z,3.60
2018-06-09T02:14:10.461Z,3.30
2018-06-09T02:15:10.473Z,3.20
2018-06-09T02:16:10.490Z,3.30
2018-06-09T02:17:10.559Z,3.10
2018-06-09T02:18:10.528Z,3.30
2018-06-09T02:19:10.608Z,3.00
2018-06-09T02:20:10.607Z,3.40
2018-06-09T02:21:10.606Z,3.30
2018-06-09T02:22:10.602Z,3.80
2018-06-09T02:23:10.664Z,3.50
2018-06-09T02:24:10.662Z,3.50
2018-06-09T02:25:10.715Z,3.40
2018-06-09T02:26:10.662Z,4.00
2018-06-09T02:27:10.665Z,3.70
2018-06-09T02:28:10.683Z,3.50
2018-06-09T02:29:10.745Z,3.30
2018-06-09T02:30:10.717Z,3.70
2018-06-09T02:31:10.735Z,3.50
2018-06-09T02:32:10.753Z,3.70
2018-06-09T02:33:10.769Z,3.70
2018-06-09T02:34:10.782Z,3.40
2018-06-09T02:35:10.841Z,3.20
2018-06-09T02:36:10.812Z,3.90
2018-06-09T02:37:10.877Z,3.70
2018-06-09T02:38:10.841Z,3.60
2018-06-09T02:39:10.865Z,4.00
2018-06-09T02:40:10.881Z,3.50
2018-06-09T02:41:10.899Z,3.80
2018-06-09T02:42:10.916Z,3.80
2018-06-09T02:43:10.925Z,3.30
2018-06-09T02:44:10.941Z,3.00
2018-06-09T02:45:10.962Z,3.20
2018-06-09T02:46:10.973Z,3.50
2018-06-09T02:47:10.999Z,3.50
2018-06-09T02:48:11.004Z,3.00
2018-06-09T02:49:11.026Z,3.40
2018-06-09T02:50:11.035Z,3.60
2018-06-09T02:51:11.059Z,3.40
2018-06-09T02:52:11.070Z,3.30
2018-06-09T02:53:11.090Z,3.30
2018-06-09T02:54:11.108Z,3.40
2018-06-09T02:55:11.121Z,3.10
2018-06-09T02:56:11.146Z,3.20
2018-06-09T02:57:11.150Z,3.20
2018-06-09T02:58:11.227Z,3.40
2018-06-09T02:59:11.187Z,3.50
2018-06-09T03:00:11.243Z,3.50
2018-06-09T03:01:11.211Z,3.30
2018-06-09T03:02:11.231Z,2.90
2018-06-09T03:03:11.245Z,3.50
2018-06-09T03:04:11.264Z,3.30
2018-06-09T03:05:11.285Z,3.60
2018-06-09T03:06:11.297Z,3.60
2018-06-09T03:07:11.322Z,3.60
2018-06-09T03:08:11.327Z,3.20
2018-06-09T03:09:11.351Z,3.80
2018-06-09T03:10:11.362Z,3.60
2018-06-09T03:11:11.412Z,3.80
2018-06-09T03:12:11.442Z,3.70
2018-06-09T03:13:11.409Z,3.50
2018-06-09T03:14:11.426Z,3.70
2018-06-09T03:15:11.449Z,3.60
2018-06-09T03:16:11.454Z,3.60
2018-06-09T03:17:11.494Z,3.80
2018-06-09T03:18:11.539Z,3.50
2018-06-09T03:19:11.514Z,3.70
2018-06-09T03:20:11.518Z,3.50
2018-06-09T03:21:11.538Z,3.60
2018-06-09T03:22:11.552Z,3.40
2018-06-09T03:23:11.571Z,3.20
2018-06-09T03:24:11.639Z,3.40
2018-06-09T03:25:11.603Z,3.50
2018-06-09T03:26:11.623Z,3.80
2018-06-09T03:27:11.633Z,3.00
2018-06-09T03:28:11.651Z,3.30
2018-06-09T03:29:11.668Z,3.30
2018-06-09T03:30:11.733Z,3.20
2018-06-09T03:31:11.701Z,3.40
2018-06-09T03:32:11.717Z,3.00
2018-06-09T03:33:11.731Z,3.60
2018-06-09T03:34:11.741Z,3.30
2018-06-09T03:35:11.834Z,3.20
2018-06-09T03:36:11.830Z,3.40
2018-06-09T03:37:11.797Z,3.60
2018-06-09T03:38:11.809Z,3.40
2018-06-09T03:39:11.827Z,3.10
2018-06-09T03:40:11.850Z,3.20
2018-06-09T03:41:11.858Z,3.20
2018-06-09T03:42:11.877Z,3.30
2018-06-09T03:43:11.925Z,3.00
2018-06-09T03:44:11.911Z,2.90
2018-06-09T03:45:11.927Z,3.30
2018-06-09T03:46:11.940Z,2.90
2018-06-09T03:47:11.992Z,3.00
2018-06-09T03:48:11.975Z,3.30
2018-06-09T03:49:11.990Z,3.10
2018-06-09T03:50:12.007Z,2.90
2018-06-09T03:51:12.022Z,3.20
2018-06-09T03:52:12.036Z,3.00
2018-06-09T03:53:12.053Z,2.90
2018-06-09T03:54:12.070Z,3.00
2018-06-09T03:55:12.086Z,3.00
2018-06-09T03:56:12.100Z,2.80
2018-06-09T03:57:12.116Z,2.80
2018-06-09T03:58:12.134Z,3.00
2018-06-09T03:59:12.151Z,2.90
2018-06-09T04:00:12.162Z,3.00
2018-06-09T04:01:12.181Z,3.00
2018-06-09T04:02:12.195Z,2.70
2018-06-09T04:03:12.217Z,3.00
2018-06-09T04:04:12.223Z,3.10
2018-06-09T04:05:12.251Z,3.10
2018-06-09T04:06:12.308Z,3.10
2018-06-09T04:07:12.279Z,3.10
2018-06-09T04:08:12.294Z,2.80
2018-06-09T04:09:12.316Z,2.70
2018-06-09T04:10:12.327Z,2.80
2018-06-09T04:11:12.347Z,2.80
2018-06-09T04:12:12.405Z,2.70
2018-06-09T04:13:12.376Z,2.80
2018-06-09T04:14:12.393Z,2.90
2018-06-09T04:15:12.413Z,2.50
2018-06-09T04:16:12.417Z,2.60
2018-06-09T04:17:12.475Z,2.60
2018-06-09T04:18:12.457Z,2.50
2018-06-09T04:19:12.479Z,2.40
2018-06-09T04:20:12.486Z,2.60
2018-06-09T04:21:12.495Z,2.50
2018-06-09T04:22:12.512Z,2.40
2018-06-09T04:23:12.614Z,2.80
2018-06-09T04:24:12.545Z,2.50
2018-06-09T04:25:12.565Z,2.80
2018-06-09T04:26:12.579Z,2.40
2018-06-09T04:27:12.598Z,2.50
2018-06-09T04:28:12.615Z,2.40
2018-06-09T04:29:12.638Z,2.60
2018-06-09T04:30:12.696Z,2.40
2018-06-09T04:31:12.655Z,2.60
2018-06-09T04:32:12.673Z,2.30
2018-06-09T04:33:12.693Z,2.40
2018-06-09T04:34:12.711Z,2.60
2018-06-09T04:35:12.750Z,2.50
2018-06-09T04:36:12.793Z,2.80
2018-06-09T04:37:12.758Z,2.30
2018-06-09T04:38:12.770Z,2.30
2018-06-09T04:39:12.784Z,2.80
2018-06-09T04:40:12.807Z,2.70
2018-06-09T04:41:12.821Z,2.50
2018-06-09T04:42:12.834Z,2.40
2018-06-09T04:43:12.857Z,2.60
2018-06-09T04:44:12.863Z,2.40
2018-06-09T04:45:12.885Z,2.50
2018-06-09T04:46:12.899Z,2.40
2018-06-09T04:47:12.916Z,2.60
2018-06-09T04:48:12.982Z,2.50
2018-06-09T04:49:12.957Z,2.40
2018-06-09T04:50:12.967Z,2.50
2018-06-09T04:51:12.986Z,2.30
2018-06-09T04:52:13.006Z,2.30
2018-06-09T04:53:13.015Z,2.50
2018-06-09T04:54:13.036Z,2.30
2018-06-09T04:55:13.041Z,2.80
2018-06-09T04:56:13.061Z,2.70
2018-06-09T04:57:13.082Z,2.50
2018-06-09T04:58:13.089Z,2.50
2018-06-09T04:59:13.132Z,2.80
2018-06-09T05:00:13.128Z,2.80
2018-06-09T05:01:13.145Z,2.50
2018-06-09T05:02:13.154Z,2.40
2018-06-09T05:03:13.174Z,2.50
2018-06-09T05:04:13.194Z,2.80
2018-06-09T05:05:13.208Z,2.60
2018-06-09T05:06:13.278Z,2.60
2018-06-09T05:07:13.287Z,2.70
2018-06-09T05:08:13.255Z,2.80
2018-06-09T05:09:13.273Z,2.90
2018-06-09T05:10:13.313Z,2.60
2018-06-09T05:11:13.306Z,3.10
2018-06-09T05:12:13.373Z,2.40
2018-06-09T05:13:13.340Z,2.70
2018-06-09T05:14:13.353Z,2.70
2018-06-09T05:15:13.386Z,2.70
2018-06-09T05:16:13.394Z,2.70
2018-06-09T05:17:13.404Z,2.70
2018-06-09T05:18:13.418Z,2.80
2018-06-09T05:19:13.435Z,2.40
2018-06-09T05:20:13.448Z,2.90
2018-06-09T05:21:13.468Z,3.00
2018-06-09T05:22:13.487Z,2.70
2018-06-09T05:23:13.501Z,2.40
2018-06-09T05:24:13.568Z,2.60
2018-06-09T05:25:13.531Z,2.80
2018-06-09T05:26:13.555Z,2.30
2018-06-09T05:27:13.568Z,2.60
2018-06-09T05:28:13.582Z,2.60
2018-06-09T05:29:13.595Z,2.70
2018-06-09T05:30:13.618Z,2.90
2018-06-09T05:31:13.632Z,2.70
2018-06-09T05:32:13.646Z,2.60
2018-06-09T05:33:13.663Z,2.80
2018-06-09T05:34:13.678Z,2.90
2018-06-09T05:35:13.699Z,2.90
2018-06-09T05:36:13.713Z,3.10
2018-06-09T05:37:13.737Z,3.10
2018-06-09T05:38:13.746Z,3.20
2018-06-09T05:39:13.764Z,3.00
2018-06-09T05:40:13.808Z,3.20
2018-06-09T05:41:13.808Z,3.30
2018-06-09T05:42:13.807Z,3.60
2018-06-09T05:43:13.821Z,3.60
2018-06-09T05:44:13.835Z,3.20
2018-06-09T05:45:13.855Z,3.40
2018-06-09T05:46:13.878Z,3.30
2018-06-09T05:47:13.895Z,3.10
2018-06-09T05:48:13.961Z,2.70
2018-06-09T05:49:13.919Z,3.10
2018-06-09T05:50:13.934Z,3.00
2018-06-09T05:51:13.958Z,3.20
2018-06-09T05:52:13.969Z,3.00
2018-06-09T05:53:13.993Z,3.20
2018-06-09T05:54:14.055Z,3.10
2018-06-09T05:55:14.021Z,3.00
2018-06-09T05:56:14.038Z,3.10
2018-06-09T05:57:14.049Z,3.30
2018-06-09T05:58:14.066Z,3.40
2018-06-09T05:59:14.084Z,3.40
2018-06-09T06:00:14.154Z,3.30
2018-06-09T06:01:14.113Z,3.00
2018-06-09T06:02:14.126Z,3.10
2018-06-09T06:03:14.148Z,2.80
2018-06-09T06:04:14.158Z,3.20
2018-06-09T06:05:14.180Z,3.20
2018-06-09T06:06:14.248Z,3.50
2018-06-09T06:07:14.205Z,3.50
2018-06-09T06:08:14.220Z,3.60
2018-06-09T06:09:14.255Z,3.70
2018-06-09T06:10:14.255Z,3.40
2018-06-09T06:11:14.276Z,3.60
2018-06-09T06:12:14.349Z,3.90
2018-06-09T06:13:14.299Z,3.80
2018-06-09T06:14:14.321Z,3.50
2018-06-09T06:15:14.373Z,3.70
2018-06-09T06:16:14.351Z,3.30
2018-06-09T06:17:14.364Z,3.10
2018-06-09T06:18:14.433Z,3.00
2018-06-09T06:19:14.401Z,2.80
2018-06-09T06:20:14.419Z,2.70
2018-06-09T06:21:14.437Z,3.00
2018-06-09T06:22:14.450Z,2.70
2018-06-09T06:23:14.466Z,3.10
2018-06-09T06:24:14.525Z,3.00
2018-06-09T06:25:14.491Z,3.20
2018-06-09T06:26:14.507Z,3.40
2018-06-09T06:27:14.529Z,3.30
2018-06-09T06:28:14.546Z,3.40
2018-06-09T06:29:14.560Z,2.90
2018-06-09T06:30:14.621Z,3.30
2018-06-09T06:31:14.593Z,3.10
2018-06-09T06:32:14.604Z,3.60
2018-06-09T06:33:14.632Z,3.40
2018-06-09T06:34:14.636Z,3.20
2018-06-09T06:35:14.655Z,3.30
2018-06-09T06:36:14.724Z,3.80
2018-06-09T06:37:14.687Z,3.90
2018-06-09T06:38:14.725Z,3.70
2018-06-09T06:39:14.730Z,3.80
2018-06-09T06:40:14.736Z,3.70
2018-06-09T06:41:14.750Z,3.90
2018-06-09T06:42:14.815Z,3.40
2018-06-09T06:43:14.777Z,3.70
2018-06-09T06:44:14.816Z,3.30
2018-06-09T06:45:14.808Z,3.00
2018-06-09T06:46:14.835Z,3.40
2018-06-09T06:47:14.918Z,3.50
2018-06-09T06:48:14.913Z,3.50
2018-06-09T06:49:14.875Z,3.10
2018-06-09T06:50:14.961Z,3.20
2018-06-09T06:51:14.915Z,3.10
2018-06-09T06:52:14.925Z,3.30
2018-06-09T06:53:14.938Z,3.10
2018-06-09T06:54:15.011Z,2.90
2018-06-09T06:55:14.972Z,3.00
2018-06-09T06:56:14.988Z,3.10
2018-06-09T06:57:15.003Z,3.20
2018-06-09T06:58:15.021Z,3.00
2018-06-09T06:59:15.039Z,2.90
2018-06-09T07:00:15.104Z,3.10
2018-06-09T07:01:15.096Z,3.30
2018-06-09T07:02:15.142Z,3.50
2018-06-09T07:03:15.101Z,3.40
2018-06-09T07:04:15.117Z,3.10
2018-06-09T07:05:15.134Z,3.30
2018-06-09T07:06:15.203Z,3.60
2018-06-09T07:07:15.160Z,3.60
2018-06-09T07:08:15.234Z,3.70
2018-06-09T07:09:15.195Z,3.70
2018-06-09T07:10:15.214Z,4.10
2018-06-09T07:11:15.230Z,4.50
2018-06-09T07:12:15.295Z,5.30
2018-06-09T07:13:15.267Z,5.60
2018-06-09T07:14:15.338Z,5.10
2018-06-09T07:15:15.291Z,5.70
2018-06-09T07:16:15.312Z,6.80
2018-06-09T07:17:15.321Z,6.70
2018-06-09T07:18:15.396Z,7.50
2018-06-09T07:19:15.356Z,8.00
2018-06-09T07:20:15.456Z,7.90
2018-06-09T07:21:15.391Z,7.80
2018-06-09T07:22:15.440Z,8.00
2018-06-09T07:23:15.424Z,8.40
2018-06-09T07:24:15.488Z,7.00
2018-06-09T07:25:15.456Z,7.10
2018-06-09T07:26:15.506Z,7.40
2018-06-09T07:27:15.488Z,7.50
2018-06-09T07:28:15.499Z,7.00
2018-06-09T07:29:15.516Z,6.60
2018-06-09T07:30:15.582Z,5.50
2018-06-09T07:31:15.553Z,5.90
2018-06-09T07:32:15.566Z,5.80
2018-06-09T07:33:15.579Z,5.90
2018-06-09T07:34:15.594Z,6.90
2018-06-09T07:35:15.687Z,6.70
2018-06-09T07:36:15.631Z,7.00
2018-06-09T07:37:15.668Z,5.80
2018-06-09T07:38:15.661Z,5.90
2018-06-09T07:39:15.677Z,5.70
2018-06-09T07:40:15.695Z,6.30
2018-06-09T07:41:15.705Z,5.40
2018-06-09T07:42:15.772Z,4.80
2018-06-09T07:43:15.770Z,5.20
2018-06-09T07:44:15.761Z,4.20
2018-06-09T07:45:15.778Z,3.90
2018-06-09T07:46:15.788Z,3.70
2018-06-09T07:47:15.805Z,4.20
2018-06-09T07:48:15.825Z,4.00
2018-06-09T07:49:15.896Z,4.10
2018-06-09T07:50:15.857Z,4.20
2018-06-09T07:51:15.863Z,4.40
2018-06-09T07:52:15.890Z,4.20
2018-06-09T07:53:15.902Z,4.80
2018-06-09T07:54:15.971Z,4.20
2018-06-09T07:55:15.960Z,4.80
2018-06-09T07:56:15.947Z,4.90
2018-06-09T07:57:15.961Z,4.50
2018-06-09T07:58:15.982Z,4.40
2018-06-09T07:59:15.991Z,4.30
2018-06-09T08:00:16.065Z,3.90
2018-06-09T08:01:16.067Z,4.10
2018-06-09T08:02:16.043Z,3.80
2018-06-09T08:03:16.056Z,4.10
2018-06-09T08:04:16.075Z,4.00
2018-06-09T08:05:16.091Z,3.80
2018-06-09T08:06:16.156Z,3.50
2018-06-09T08:07:16.128Z,3.60
2018-06-09T08:08:16.141Z,3.40
2018-06-09T08:09:16.151Z,3.50
2018-06-09T08:10:16.171Z,3.00
2018-06-09T08:11:16.193Z,3.00
2018-06-09T08:12:16.257Z,3.10
2018-06-09T08:13:16.256Z,3.20
2018-06-09T08:14:16.238Z,3.10
2018-06-09T08:15:16.249Z,3.20
2018-06-09T08:16:16.267Z,3.00
2018-06-09T08:17:16.282Z,2.90
2018-06-09T08:18:16.353Z,3.00
2018-06-09T08:19:16.409Z,2.80
2018-06-09T08:20:16.328Z,3.30
2018-06-09T08:21:16.350Z,3.10
2018-06-09T08:22:16.366Z,3.20
2018-06-09T08:23:16.380Z,2.90
2018-06-09T08:24:16.446Z,2.90
2018-06-09T08:25:16.435Z,3.40
2018-06-09T08:26:16.434Z,3.00
2018-06-09T08:27:16.449Z,3.20
2018-06-09T08:28:16.460Z,3.10
2018-06-09T08:29:16.475Z,2.90
2018-06-09T08:30:16.548Z,3.20
2018-06-09T08:31:16.508Z,3.30
2018-06-09T08:32:16.525Z,3.20
2018-06-09T08:33:16.542Z,3.30
2018-06-09T08:34:16.563Z,3.10
2018-06-09T08:35:16.576Z,3.20
2018-06-09T08:36:16.716Z,3.20
2018-06-09T08:37:16.610Z,3.30
2018-06-09T08:38:16.628Z,3.30
2018-06-09T08:39:16.646Z,3.10
2018-06-09T08:40:16.659Z,3.60
2018-06-09T08:41:16.675Z,3.00
2018-06-09T08:42:16.742Z,3.20
2018-06-09T08:43:16.796Z,3.60
2018-06-09T08:44:16.723Z,3.00
2018-06-09T08:45:16.741Z,3.00
2018-06-09T08:46:16.766Z,3.30
2018-06-09T08:47:16.770Z,3.20
2018-06-09T08:48:16.849Z,2.90
2018-06-09T08:49:16.803Z,3.10
2018-06-09T08:50:16.821Z,2.70
2018-06-09T08:51:16.834Z,3.10
2018-06-09T08:52:16.852Z,2.70
2018-06-09T08:53:16.868Z,2.90
2018-06-09T08:54:16.936Z,2.80
2018-06-09T08:55:16.905Z,2.70
2018-06-09T08:56:16.919Z,2.70
2018-06-09T08:57:16.932Z,2.80
2018-06-09T08:58:16.953Z,2.40
2018-06-09T08:59:16.970Z,2.40
2018-06-09T09:00:17.034Z,2.50
2018-06-09T09:01:16.999Z,2.50
2018-06-09T09:02:17.018Z,2.60
2018-06-09T09:03:17.034Z,2.30
2018-06-09T09:04:17.051Z,2.20
2018-06-09T09:05:17.066Z,2.30
2018-06-09T09:06:17.139Z,2.50
2018-06-09T09:07:17.099Z,2.30
2018-06-09T09:08:17.118Z,2.00
2018-06-09T09:09:17.159Z,2.30
2018-06-09T09:10:17.154Z,2.40
2018-06-09T09:11:17.165Z,2.30
2018-06-09T09:12:17.183Z,2.40
2018-06-09T09:13:17.204Z,2.40
2018-06-09T09:14:17.218Z,2.30
2018-06-09T09:15:17.231Z,2.30
2018-06-09T09:16:17.255Z,2.40
2018-06-09T09:17:17.269Z,2.20
2018-06-09T09:18:17.290Z,2.10
2018-06-09T09:19:17.301Z,2.20
2018-06-09T09:20:17.321Z,2.20
2018-06-09T09:21:17.335Z,2.50
2018-06-09T09:22:17.354Z,2.20
2018-06-09T09:23:17.366Z,2.60
2018-06-09T09:24:17.433Z,2.60
2018-06-09T09:25:17.408Z,2.70
2018-06-09T09:26:17.421Z,2.70
2018-06-09T09:27:17.437Z,2.80
2018-06-09T09:28:17.455Z,2.80
2018-06-09T09:29:17.470Z,3.20
2018-06-09T09:30:17.487Z,2.70
2018-06-09T09:31:17.519Z,2.60
2018-06-09T09:32:17.526Z,2.90
2018-06-09T09:33:17.539Z,2.70
2018-06-09T09:34:17.560Z,2.60
2018-06-09T09:35:17.578Z,2.50
2018-06-09T09:36:17.672Z,2.50
2018-06-09T09:37:17.640Z,2.60
2018-06-09T09:38:17.633Z,2.70
2018-06-09T09:39:17.641Z,2.50
2018-06-09T09:40:17.667Z,2.80
2018-06-09T09:41:17.679Z,2.70
2018-06-09T09:42:17.697Z,2.60
2018-06-09T09:43:17.756Z,2.10
2018-06-09T09:44:17.734Z,2.20
2018-06-09T09:45:17.754Z,2.10
2018-06-09T09:46:17.794Z,2.30
2018-06-09T09:47:17.786Z,2.10
2018-06-09T09:48:17.804Z,2.70
2018-06-09T09:49:17.885Z,2.20
2018-06-09T09:50:17.840Z,2.30
2018-06-09T09:51:17.910Z,2.40
2018-06-09T09:52:17.885Z,2.20
2018-06-09T09:53:17.901Z,2.10
2018-06-09T09:54:17.921Z,2.20
2018-06-09T09:55:17.990Z,2.20
2018-06-09T09:56:17.950Z,2.00
2018-06-09T09:57:17.972Z,2.20
2018-06-09T09:58:17.990Z,2.50
2018-06-09T09:59:18.013Z,1.90
2018-06-09T10:00:18.083Z,2.00
2018-06-09T10:01:18.044Z,2.20
2018-06-09T10:02:18.068Z,1.90
2018-06-09T10:03:18.094Z,1.70
2018-06-09T10:04:18.099Z,1.50
2018-06-09T10:05:18.119Z,1.60
2018-06-09T10:06:18.145Z,1.80
2018-06-09T10:07:18.155Z,1.70
2018-06-09T10:08:18.180Z,1.80
2018-06-09T10:09:18.208Z,2.00
2018-06-09T10:10:18.214Z,1.70
2018-06-09T10:11:18.238Z,1.60
2018-06-09T10:12:18.304Z,1.70
2018-06-09T10:13:18.272Z,1.50
2018-06-09T10:14:18.300Z,1.20
2018-06-09T10:15:18.319Z,1.30
2018-06-09T10:16:18.337Z,1.60
2018-06-09T10:17:18.402Z,1.70
2018-06-09T10:18:18.422Z,1.90
2018-06-09T10:19:18.392Z,1.70
2018-06-09T10:20:18.416Z,1.80
2018-06-09T10:21:18.432Z,1.60
2018-06-09T10:22:18.449Z,1.90
2018-06-09T10:23:18.477Z,2.20
2018-06-09T10:24:18.590Z,2.30
2018-06-09T10:25:18.508Z,1.90
2018-06-09T10:26:18.529Z,2.20
2018-06-09T10:27:18.548Z,2.00
2018-06-09T10:28:18.570Z,2.30
2018-06-09T10:29:18.592Z,2.30
2018-06-09T10:30:18.680Z,2.30
2018-06-09T10:31:18.627Z,2.30
2018-06-09T10:32:18.645Z,1.60
2018-06-09T10:33:18.673Z,1.50
2018-06-09T10:34:18.687Z,1.80
2018-06-09T10:35:18.705Z,1.60
2018-06-09T10:36:18.779Z,1.30
2018-06-09T10:37:18.746Z,1.30
2018-06-09T10:38:18.766Z,1.50
2018-06-09T10:39:18.788Z,1.50
2018-06-09T10:40:18.808Z,2.10
2018-06-09T10:41:18.829Z,2.10
2018-06-09T10:42:18.919Z,2.10
2018-06-09T10:43:18.874Z,2.10
2018-06-09T10:44:18.887Z,1.80
2018-06-09T10:45:18.979Z,1.70
2018-06-09T10:46:18.930Z,1.50
2018-06-09T10:47:18.950Z,1.70
2018-06-09T10:48:19.046Z,1.50
2018-06-09T10:49:18.991Z,1.60
2018-06-09T10:50:19.011Z,1.40
2018-06-09T10:51:19.029Z,1.50
2018-06-09T10:52:19.051Z,1.60
2018-06-09T10:53:19.073Z,1.40
2018-06-09T10:54:19.091Z,1.40
2018-06-09T10:55:19.108Z,1.50
2018-06-09T10:56:19.131Z,1.60
2018-06-09T10:57:19.152Z,1.60
2018-06-09T10:58:19.167Z,1.60
2018-06-09T10:59:19.190Z,1.20
2018-06-09T11:00:19.259Z,1.70
2018-06-09T11:01:19.231Z,1.50
2018-06-09T11:02:19.255Z,1.50
2018-06-09T11:03:19.271Z,1.60
2018-06-09T11:04:19.286Z,1.50
2018-06-09T11:05:19.305Z,1.30
2018-06-09T11:06:19.326Z,1.30
2018-06-09T11:07:19.349Z,1.30
2018-06-09T11:08:19.365Z,1.40
2018-06-09T11:09:19.388Z,1.40
2018-06-09T11:10:19.411Z,1.20
2018-06-09T11:11:19.433Z,1.10
2018-06-09T11:12:19.449Z,1.30
2018-06-09T11:13:19.469Z,1.40
2018-06-09T11:14:19.494Z,1.20
2018-06-09T11:15:19.513Z,1.30
2018-06-09T11:16:19.531Z,1.10
2018-06-09T11:17:19.555Z,1.00
2018-06-09T11:18:19.681Z,1.50
2018-06-09T11:19:19.590Z,1.20
2018-06-09T11:20:19.606Z,1.40
2018-06-09T11:21:19.632Z,1.60
2018-06-09T11:22:19.649Z,1.30
2018-06-09T11:23:19.672Z,1.40
2018-06-09T11:24:19.756Z,1.50
2018-06-09T11:25:19.716Z,1.50
2018-06-09T11:26:19.737Z,1.50
2018-06-09T11:27:19.754Z,1.40
2018-06-09T11:28:19.769Z,1.30
2018-06-09T11:29:19.796Z,1.30
2018-06-09T11:30:19.864Z,1.20
2018-06-09T11:31:19.832Z,1.10
2018-06-09T11:32:19.850Z,1.20
2018-06-09T11:33:19.869Z,0.90
2018-06-09T11:34:19.892Z,1.10
2018-06-09T11:35:19.909Z,1.00
2018-06-09T11:36:19.930Z,0.90
2018-06-09T11:37:19.953Z,1.10
2018-06-09T11:38:19.972Z,1.00
2018-06-09T11:40:20.021Z,1.20
2018-06-09T11:41:20.034Z,1.20
2018-06-09T11:42:20.062Z,1.10
2018-06-09T11:43:20.074Z,0.80
2018-06-09T11:44:20.094Z,0.90
2018-06-09T11:45:20.116Z,1.00
2018-06-09T11:46:20.139Z,0.80
2018-06-09T11:47:20.159Z,1.00
2018-06-09T11:48:20.190Z,1.40
2018-06-09T11:49:20.199Z,1.40
2018-06-09T11:50:20.218Z,1.40
2018-06-09T11:51:20.239Z,1.20
2018-06-09T11:52:20.262Z,1.40
2018-06-09T11:53:20.305Z,1.40
2018-06-09T11:54:20.298Z,1.40
2018-06-09T11:55:20.319Z,1.30
2018-06-09T11:56:20.339Z,1.50
2018-06-09T11:57:20.355Z,2.00
2018-06-09T11:58:20.373Z,1.60
2018-06-09T11:59:20.438Z,1.90
2018-06-09T12:00:20.466Z,1.60
2018-06-09T12:01:20.434Z,1.70
2018-06-09T12:02:20.456Z,1.40
2018-06-09T12:03:20.475Z,1.90
2018-06-09T12:04:20.500Z,2.10
2018-06-09T12:05:20.518Z,1.50
2018-06-09T12:06:20.538Z,1.70
2018-06-09T12:07:20.561Z,1.90
2018-06-09T12:08:20.574Z,2.00
2018-06-09T12:09:20.597Z,1.50
2018-06-09T12:10:20.619Z,1.50
2018-06-09T12:11:20.635Z,1.40
2018-06-09T12:12:20.713Z,1.80
2018-06-09T12:13:20.678Z,1.80
2018-06-09T12:14:20.704Z,1.50
2018-06-09T12:15:20.718Z,1.90
2018-06-09T12:16:20.739Z,1.80
2018-06-09T12:17:20.843Z,1.80
2018-06-09T12:19:20.847Z,1.90
2018-06-09T12:20:20.823Z,1.90
2018-06-09T12:21:20.844Z,1.80
2018-06-09T12:22:20.857Z,2.20
2018-06-09T12:23:20.884Z,1.90
2018-06-09T12:24:20.953Z,2.30
2018-06-09T12:25:20.921Z,1.70
2018-06-09T12:26:20.938Z,1.60
2018-06-09T12:27:20.965Z,1.90
2018-06-09T12:28:20.984Z,1.40
2018-06-09T12:29:20.997Z,1.40
2018-06-09T12:30:21.098Z,1.40
2018-06-09T12:31:21.043Z,1.60
2018-06-09T12:32:21.058Z,1.80
2018-06-09T12:33:21.077Z,1.70
2018-06-09T12:34:21.101Z,1.50
2018-06-09T12:35:21.118Z,1.60
2018-06-09T12:36:21.212Z,1.80
2018-06-09T12:37:21.158Z,1.90
2018-06-09T12:38:21.176Z,1.70
2018-06-09T12:39:21.232Z,1.40
2018-06-09T12:40:21.215Z,1.70
2018-06-09T12:41:21.242Z,1.50
2018-06-09T12:42:21.256Z,1.60
2018-06-09T12:43:21.276Z,1.80
2018-06-09T12:44:21.444Z,1.60
2018-06-09T12:45:21.311Z,1.30
2018-06-09T12:46:21.334Z,1.30
2018-06-09T12:47:21.348Z,1.60
2018-06-09T12:48:21.434Z,1.60
2018-06-09T12:49:21.386Z,1.30
2018-06-09T12:50:21.415Z,1.60
2018-06-09T12:51:21.434Z,1.70
2018-06-09T12:52:21.448Z,1.50
2018-06-09T12:53:21.470Z,1.70
2018-06-09T12:54:21.493Z,1.40
2018-06-09T12:55:21.507Z,1.80
2018-06-09T12:56:21.526Z,1.80
2018-06-09T12:57:21.547Z,2.00
2018-06-09T12:58:21.567Z,2.00
2018-06-09T12:59:21.595Z,2.00
2018-06-09T13:00:21.611Z,2.30
2018-06-09T13:01:21.640Z,2.10
2018-06-09T13:02:21.649Z,2.00
2018-06-09T13:03:21.672Z,2.00
2018-06-09T13:04:21.688Z,2.10
2018-06-09T13:05:21.712Z,2.00
2018-06-09T13:06:21.784Z,2.30
2018-06-09T13:07:21.765Z,2.00
2018-06-09T13:08:21.765Z,2.00
2018-06-09T13:09:21.786Z,1.90
2018-06-09T13:10:21.812Z,1.80
2018-06-09T13:11:21.826Z,1.50
2018-06-09T13:12:21.894Z,2.00
2018-06-09T13:13:21.863Z,2.10
2018-06-09T13:14:21.886Z,2.20
2018-06-09T13:15:21.903Z,2.30
2018-06-09T13:16:21.924Z,2.20
2018-06-09T13:17:21.942Z,2.40
2018-06-09T13:18:22.019Z,1.90
2018-06-09T13:19:21.983Z,2.00
2018-06-09T13:20:22.007Z,2.30
2018-06-09T13:21:22.023Z,1.90